sensor_id;sensor_type;location;lat;lon;timestamp;pressure;altitude;pressure_sealevel;temperature;humidity
20620;BME280;10469;42.720;23.252;2023-12-07T00:01:29;94555.28;;;5.06;100.00
20620;BME280;10469;42.720;23.252;2023-12-07T00:03:55;94561.34;;;5.20;100.00
20620;BME280;10469;42.720;23.252;2023-12-07T00:06:20;94569.91;;;5.28;100.00
20620;BME280;10469;42.720;23.252;2023-12-07T00:08:46;94545.00;;;5.16;100.00
20620;BME280;10469;42.720;23.252;2023-12-07T00:11:12;94576.44;;;5.26;100.00
20620;BME280;10469;42.720;23.252;2023-12-07T00:13:37;94556.13;;;5.38;100.00
20620;BME280;10469;42.720;23.252;2023-12-07T00:16:03;94547.00;;;5.27;100.00
20620;BME280;10469;42.720;23.252;2023-12-07T00:18:29;94545.75;;;5.30;100.00
20620;BME280;10469;42.720;23.252;2023-12-07T00:20:54;94572.91;;;5.39;100.00
20620;BME280;10469;42.720;23.252;2023-12-07T00:23:20;94571.44;;;5.49;100.00
20620;BME280;10469;42.720;23.252;2023-12-07T00:25:46;94567.06;;;5.23;100.00
20620;BME280;10469;42.720;23.252;2023-12-07T00:28:11;94557.13;;;5.44;100.00
20620;BME280;10469;42.720;23.252;2023-12-07T00:30:37;94569.81;;;5.48;100.00
20620;BME280;10469;42.720;23.252;2023-12-07T00:33:03;94574.28;;;5.54;100.00
20620;BME280;10469;42.720;23.252;2023-12-07T00:35:28;94558.22;;;5.36;100.00
20620;BME280;10469;42.720;23.252;2023-12-07T00:37:55;94578.09;;;5.27;100.00
20620;BME280;10469;42.720;23.252;2023-12-07T00:40:22;94581.31;;;5.36;100.00
20620;BME280;10469;42.720;23.252;2023-12-07T00:42:48;94574.28;;;5.48;100.00
20620;BME280;10469;42.720;23.252;2023-12-07T00:45:14;94573.75;;;5.33;100.00
20620;BME280;10469;42.720;23.252;2023-12-07T00:47:39;94573.53;;;5.41;100.00
20620;BME280;10469;42.720;23.252;2023-12-07T00:50:05;94573.19;;;5.24;100.00
20620;BME280;10469;42.720;23.252;2023-12-07T00:52:31;94564.94;;;5.39;100.00
20620;BME280;10469;42.720;23.252;2023-12-07T00:54:57;94562.09;;;5.34;100.00
20620;BME280;10469;42.720;23.252;2023-12-07T00:57:23;94560.06;;;5.36;100.00
20620;BME280;10469;42.720;23.252;2023-12-07T00:59:49;94565.38;;;5.29;100.00
20620;BME280;10469;42.720;23.252;2023-12-07T01:02:14;94564.94;;;5.39;100.00
20620;BME280;10469;42.720;23.252;2023-12-07T01:04:40;94568.84;;;5.29;100.00
20620;BME280;10469;42.720;23.252;2023-12-07T01:07:06;94552.56;;;5.13;100.00
20620;BME280;10469;42.720;23.252;2023-12-07T01:09:33;94563.94;;;5.33;100.00
20620;BME280;10469;42.720;23.252;2023-12-07T01:12:01;94548.66;;;5.22;100.00
20620;BME280;10469;42.720;23.252;2023-12-07T01:14:27;94562.06;;;5.40;100.00
20620;BME280;10469;42.720;23.252;2023-12-07T01:16:52;94549.03;;;5.25;100.00
20620;BME280;10469;42.720;23.252;2023-12-07T01:19:18;94559.25;;;5.28;100.00
20620;BME280;10469;42.720;23.252;2023-12-07T01:21:44;94568.78;;;5.43;100.00
20620;BME280;10469;42.720;23.252;2023-12-07T01:24:09;94559.59;;;5.45;100.00
20620;BME280;10469;42.720;23.252;2023-12-07T01:26:35;94558.22;;;5.36;100.00
20620;BME280;10469;42.720;23.252;2023-12-07T01:29:01;94550.94;;;5.05;100.00
20620;BME280;10469;42.720;23.252;2023-12-07T01:31:28;94569.63;;;4.85;100.00
20620;BME280;10469;42.720;23.252;2023-12-07T01:33:57;94567.19;;;4.84;100.00
20620;BME280;10469;42.720;23.252;2023-12-07T01:36:22;94542.31;;;4.65;100.00
20620;BME280;10469;42.720;23.252;2023-12-07T01:38:48;94558.19;;;4.85;100.00
20620;BME280;10469;42.720;23.252;2023-12-07T01:41:14;94555.56;;;4.65;100.00
20620;BME280;10469;42.720;23.252;2023-12-07T01:43:46;94558.63;;;4.62;100.00
20620;BME280;10469;42.720;23.252;2023-12-07T01:46:13;94551.69;;;4.67;100.00
20620;BME280;10469;42.720;23.252;2023-12-07T01:48:40;94550.44;;;4.76;100.00
20620;BME280;10469;42.720;23.252;2023-12-07T01:51:06;94545.94;;;4.70;100.00
20620;BME280;10469;42.720;23.252;2023-12-07T01:53:32;94545.31;;;4.88;100.00
20620;BME280;10469;42.720;23.252;2023-12-07T01:55:59;94544.72;;;4.73;100.00
20620;BME280;10469;42.720;23.252;2023-12-07T01:58:25;94548.81;;;4.75;100.00
20620;BME280;10469;42.720;23.252;2023-12-07T02:00:51;94548.59;;;4.84;100.00
20620;BME280;10469;42.720;23.252;2023-12-07T02:03:17;94552.06;;;4.77;100.00
20620;BME280;10469;42.720;23.252;2023-12-07T02:05:46;94543.69;;;4.81;100.00
20620;BME280;10469;42.720;23.252;2023-12-07T02:08:12;94537.13;;;4.90;100.00
20620;BME280;10469;42.720;23.252;2023-12-07T02:10:38;94527.09;;;4.98;100.00
20620;BME280;10469;42.720;23.252;2023-12-07T02:13:05;94543.78;;;5.12;100.00
20620;BME280;10469;42.720;23.252;2023-12-07T02:15:31;94547.66;;;5.16;100.00
20620;BME280;10469;42.720;23.252;2023-12-07T02:17:58;94549.50;;;5.16;100.00
20620;BME280;10469;42.720;23.252;2023-12-07T02:23:01;94551.88;;;5.31;100.00
20620;BME280;10469;42.720;23.252;2023-12-07T02:25:44;94555.63;;;5.16;100.00
20620;BME280;10469;42.720;23.252;2023-12-07T02:28:32;94538.97;;;5.34;100.00
20620;BME280;10469;42.720;23.252;2023-12-07T02:30:57;94537.59;;;5.25;100.00
20620;BME280;10469;42.720;23.252;2023-12-07T02:33:23;94548.97;;;5.39;100.00
20620;BME280;10469;42.720;23.252;2023-12-07T02:35:49;94549.59;;;5.41;100.00
20620;BME280;10469;42.720;23.252;2023-12-07T02:38:15;94550.88;;;5.32;100.00
20620;BME280;10469;42.720;23.252;2023-12-07T02:40:43;94541.47;;;5.29;100.00
20620;BME280;10469;42.720;23.252;2023-12-07T02:43:10;94518.72;;;4.95;100.00
20620;BME280;10469;42.720;23.252;2023-12-07T02:45:36;94535.06;;;4.92;100.00
20620;BME280;10469;42.720;23.252;2023-12-07T02:48:02;94542.69;;;4.75;100.00
20620;BME280;10469;42.720;23.252;2023-12-07T02:50:27;94524.34;;;4.60;100.00
20620;BME280;10469;42.720;23.252;2023-12-07T02:52:53;94531.69;;;4.65;100.00
20620;BME280;10469;42.720;23.252;2023-12-07T02:55:21;94540.22;;;4.80;100.00
20620;BME280;10469;42.720;23.252;2023-12-07T02:57:47;94540.78;;;4.95;100.00
20620;BME280;10469;42.720;23.252;2023-12-07T03:00:13;94545.06;;;4.96;100.00
20620;BME280;10469;42.720;23.252;2023-12-07T03:02:40;94532.56;;;5.10;100.00
20620;BME280;10469;42.720;23.252;2023-12-07T03:05:07;94539.72;;;5.03;100.00
20620;BME280;10469;42.720;23.252;2023-12-07T03:07:33;94541.22;;;4.79;100.00
20620;BME280;10469;42.720;23.252;2023-12-07T03:09:59;94528.75;;;4.86;100.00
20620;BME280;10469;42.720;23.252;2023-12-07T03:12:25;94532.00;;;4.95;100.00
20620;BME280;10469;42.720;23.252;2023-12-07T03:14:51;94548.78;;;4.89;100.00
20620;BME280;10469;42.720;23.252;2023-12-07T03:17:17;94545.53;;;4.73;100.00
20620;BME280;10469;42.720;23.252;2023-12-07T03:19:43;94514.94;;;4.71;100.00
20620;BME280;10469;42.720;23.252;2023-12-07T03:22:08;94533.25;;;4.86;100.00
20620;BME280;10469;42.720;23.252;2023-12-07T03:24:35;94541.34;;;5.04;100.00
20620;BME280;10469;42.720;23.252;2023-12-07T03:27:00;94555.84;;;5.08;100.00
20620;BME280;10469;42.720;23.252;2023-12-07T03:29:26;94543.97;;;5.17;100.00
20620;BME280;10469;42.720;23.252;2023-12-07T03:31:51;94559.09;;;5.23;100.00
20620;BME280;10469;42.720;23.252;2023-12-07T03:34:17;94532.41;;;4.98;100.00
20620;BME280;10469;42.720;23.252;2023-12-07T03:36:47;94546.63;;;5.17;100.00
20620;BME280;10469;42.720;23.252;2023-12-07T03:39:17;94561.78;;;5.10;100.00
20620;BME280;10469;42.720;23.252;2023-12-07T03:41:52;94545.84;;;5.10;100.00
20620;BME280;10469;42.720;23.252;2023-12-07T03:44:18;94567.69;;;5.12;100.00
20620;BME280;10469;42.720;23.252;2023-12-07T03:46:44;94553.38;;;5.13;100.00
20620;BME280;10469;42.720;23.252;2023-12-07T03:49:10;94557.56;;;4.89;100.00
20620;BME280;10469;42.720;23.252;2023-12-07T03:51:35;94561.19;;;5.08;100.00
20620;BME280;10469;42.720;23.252;2023-12-07T03:54:02;94531.13;;;5.08;100.00
20620;BME280;10469;42.720;23.252;2023-12-07T03:56:29;94542.03;;;4.93;100.00
20620;BME280;10469;42.720;23.252;2023-12-07T03:58:55;94543.47;;;4.89;100.00
20620;BME280;10469;42.720;23.252;2023-12-07T04:01:26;94547.47;;;5.11;100.00
20620;BME280;10469;42.720;23.252;2023-12-07T04:03:54;94552.50;;;5.33;100.00
20620;BME280;10469;42.720;23.252;2023-12-07T04:06:26;94560.66;;;5.38;100.00
20620;BME280;10469;42.720;23.252;2023-12-07T04:08:52;94552.44;;;5.39;100.00
20620;BME280;10469;42.720;23.252;2023-12-07T04:11:18;94558.28;;;5.23;100.00
20620;BME280;10469;42.720;23.252;2023-12-07T04:13:46;94564.97;;;5.32;100.00
20620;BME280;10469;42.720;23.252;2023-12-07T04:16:12;94558.69;;;5.20;100.00
20620;BME280;10469;42.720;23.252;2023-12-07T04:18:37;94562.16;;;5.14;100.00
20620;BME280;10469;42.720;23.252;2023-12-07T04:21:03;94565.03;;;5.19;100.00
20620;BME280;10469;42.720;23.252;2023-12-07T04:23:31;94566.19;;;5.36;100.00
20620;BME280;10469;42.720;23.252;2023-12-07T04:25:56;94550.53;;;5.15;100.00
20620;BME280;10469;42.720;23.252;2023-12-07T04:28:22;94576.03;;;5.29;100.00
20620;BME280;10469;42.720;23.252;2023-12-07T04:30:48;94571.34;;;5.24;100.00
20620;BME280;10469;42.720;23.252;2023-12-07T04:33:13;94573.75;;;5.33;100.00
20620;BME280;10469;42.720;23.252;2023-12-07T04:35:39;94572.94;;;5.32;100.00
20620;BME280;10469;42.720;23.252;2023-12-07T04:38:05;94584.63;;;5.31;100.00
20620;BME280;10469;42.720;23.252;2023-12-07T04:40:30;94582.56;;;5.33;100.00
20620;BME280;10469;42.720;23.252;2023-12-07T04:42:56;94581.91;;;5.44;100.00
20620;BME280;10469;42.720;23.252;2023-12-07T04:45:22;94581.03;;;5.57;100.00
20620;BME280;10469;42.720;23.252;2023-12-07T04:47:47;94586.75;;;5.54;100.00
20620;BME280;10469;42.720;23.252;2023-12-07T04:50:13;94573.41;;;5.22;100.00
20620;BME280;10469;42.720;23.252;2023-12-07T04:52:39;94589.59;;;5.14;100.00
20620;BME280;10469;42.720;23.252;2023-12-07T04:55:06;94568.50;;;5.13;100.00
20620;BME280;10469;42.720;23.252;2023-12-07T04:57:35;94595.22;;;5.38;100.00
20620;BME280;10469;42.720;23.252;2023-12-07T05:00:02;94589.88;;;5.38;100.00
20620;BME280;10469;42.720;23.252;2023-12-07T05:02:32;94578.72;;;5.16;100.00
20620;BME280;10469;42.720;23.252;2023-12-07T05:04:57;94578.66;;;5.36;100.00
20620;BME280;10469;42.720;23.252;2023-12-07T05:07:23;94594.34;;;5.44;100.00
20620;BME280;10469;42.720;23.252;2023-12-07T05:09:49;94589.72;;;5.26;100.00
20620;BME280;10469;42.720;23.252;2023-12-07T05:12:16;94595.63;;;5.35;100.00
20620;BME280;10469;42.720;23.252;2023-12-07T05:14:42;94600.75;;;5.36;100.00
20620;BME280;10469;42.720;23.252;2023-12-07T05:17:08;94599.31;;;5.40;100.00
20620;BME280;10469;42.720;23.252;2023-12-07T05:19:33;94605.84;;;5.38;100.00
20620;BME280;10469;42.720;23.252;2023-12-07T05:21:59;94594.44;;;5.24;100.00
20620;BME280;10469;42.720;23.252;2023-12-07T05:24:25;94591.06;;;4.90;100.00
20620;BME280;10469;42.720;23.252;2023-12-07T05:26:50;94607.97;;;5.16;100.00
20620;BME280;10469;42.720;23.252;2023-12-07T05:29:17;94603.84;;;5.26;100.00
20620;BME280;10469;42.720;23.252;2023-12-07T05:31:43;94615.03;;;5.42;100.00
20620;BME280;10469;42.720;23.252;2023-12-07T05:34:09;94610.75;;;5.34;100.00
20620;BME280;10469;42.720;23.252;2023-12-07T05:36:34;94609.66;;;5.55;100.00
20620;BME280;10469;42.720;23.252;2023-12-07T05:39:00;94607.00;;;5.55;100.00
20620;BME280;10469;42.720;23.252;2023-12-07T05:41:26;94606.47;;;5.40;100.00
20620;BME280;10469;42.720;23.252;2023-12-07T05:43:52;94595.22;;;5.38;100.00
20620;BME280;10469;42.720;23.252;2023-12-07T05:46:21;94615.19;;;5.53;100.00
20620;BME280;10469;42.720;23.252;2023-12-07T05:48:46;94620.91;;;5.57;100.00
20620;BME280;10469;42.720;23.252;2023-12-07T05:51:16;94604.34;;;5.55;100.00
20620;BME280;10469;42.720;23.252;2023-12-07T05:53:43;94616.13;;;5.72;100.00
20620;BME280;10469;42.720;23.252;2023-12-07T05:56:10;94607.00;;;5.55;100.00
20620;BME280;10469;42.720;23.252;2023-12-07T05:58:36;94617.81;;;5.60;100.00
20620;BME280;10469;42.720;23.252;2023-12-07T06:01:02;94618.38;;;5.75;100.00
20620;BME280;10469;42.720;23.252;2023-12-07T06:03:29;94613.84;;;5.76;100.00
20620;BME280;10469;42.720;23.252;2023-12-07T06:05:54;94623.19;;;5.47;100.00
20620;BME280;10469;42.720;23.252;2023-12-07T06:08:21;94613.13;;;5.62;100.00
20620;BME280;10469;42.720;23.252;2023-12-07T06:10:48;94627.91;;;5.90;100.00
20620;BME280;10469;42.720;23.252;2023-12-07T06:13:13;94632.03;;;5.92;100.00
20620;BME280;10469;42.720;23.252;2023-12-07T06:15:42;94631.47;;;6.09;100.00
20620;BME280;10469;42.720;23.252;2023-12-07T06:18:08;94609.69;;;5.93;100.00
20620;BME280;10469;42.720;23.252;2023-12-07T06:20:33;94627.25;;;6.01;100.00
20620;BME280;10469;42.720;23.252;2023-12-07T06:23:00;94620.78;;;5.84;100.00
20620;BME280;10469;42.720;23.252;2023-12-07T06:25:27;94635.56;;;6.11;100.00
20620;BME280;10469;42.720;23.252;2023-12-07T06:27:52;94627.47;;;6.31;100.00
20620;BME280;10469;42.720;23.252;2023-12-07T06:30:18;94636.63;;;6.10;100.00
20620;BME280;10469;42.720;23.252;2023-12-07T06:32:44;94630.66;;;5.70;100.00
20620;BME280;10469;42.720;23.252;2023-12-07T06:35:13;94645.34;;;6.17;100.00
20620;BME280;10469;42.720;23.252;2023-12-07T06:37:38;94629.53;;;5.97;100.00
20620;BME280;10469;42.720;23.252;2023-12-07T06:40:08;94632.41;;;5.89;100.00
20620;BME280;10469;42.720;23.252;2023-12-07T06:42:35;94644.09;;;5.82;100.00
20620;BME280;10469;42.720;23.252;2023-12-07T06:45:01;94655.16;;;5.78;100.00
20620;BME280;10469;42.720;23.252;2023-12-07T06:47:27;94645.78;;;5.69;100.00
20620;BME280;10469;42.720;23.252;2023-12-07T06:49:53;94657.16;;;5.45;100.00
20620;BME280;10469;42.720;23.252;2023-12-07T06:52:19;94624.31;;;5.19;100.00
20620;BME280;10469;42.720;23.252;2023-12-07T06:54:45;94658.97;;;5.51;100.00
20620;BME280;10469;42.720;23.252;2023-12-07T06:57:10;94648.38;;;5.38;100.00
20620;BME280;10469;42.720;23.252;2023-12-07T06:59:37;94653.94;;;5.29;100.00
20620;BME280;10469;42.720;23.252;2023-12-07T07:02:03;94658.22;;;5.31;100.00
20620;BME280;10469;42.720;23.252;2023-12-07T07:04:29;94656.72;;;5.48;100.00
20620;BME280;10469;42.720;23.252;2023-12-07T07:06:55;94660.38;;;5.60;100.00
20620;BME280;10469;42.720;23.252;2023-12-07T07:09:21;94665.31;;;5.50;100.00
20620;BME280;10469;42.720;23.252;2023-12-07T07:11:50;94667.41;;;5.35;100.00
20620;BME280;10469;42.720;23.252;2023-12-07T07:14:15;94649.91;;;5.00;100.00
20620;BME280;10469;42.720;23.252;2023-12-07T07:16:41;94678.28;;;5.13;100.00
20620;BME280;10469;42.720;23.252;2023-12-07T07:19:07;94671.78;;;4.96;100.00
20620;BME280;10469;42.720;23.252;2023-12-07T07:21:33;94665.66;;;5.02;100.00
20620;BME280;10469;42.720;23.252;2023-12-07T07:23:58;94675.50;;;4.88;100.00
20620;BME280;10469;42.720;23.252;2023-12-07T07:26:24;94677.13;;;4.83;100.00
20620;BME280;10469;42.720;23.252;2023-12-07T07:28:53;94675.09;;;4.85;100.00
20620;BME280;10469;42.720;23.252;2023-12-07T07:31:19;94679.00;;;4.62;100.00
20620;BME280;10469;42.720;23.252;2023-12-07T07:33:45;94683.66;;;4.87;100.00
20620;BME280;10469;42.720;23.252;2023-12-07T07:36:14;94686.34;;;4.80;100.00
20620;BME280;10469;42.720;23.252;2023-12-07T07:38:43;94689.41;;;4.50;100.00
20620;BME280;10469;42.720;23.252;2023-12-07T07:41:11;94696.75;;;4.55;100.00
20620;BME280;10469;42.720;23.252;2023-12-07T07:43:37;94691.44;;;4.68;100.00
20620;BME280;10469;42.720;23.252;2023-12-07T07:46:03;94709.41;;;4.86;100.00
20620;BME280;10469;42.720;23.252;2023-12-07T07:48:30;94698.78;;;4.99;100.00
20620;BME280;10469;42.720;23.252;2023-12-07T07:50:57;94694.72;;;4.84;100.00
20620;BME280;10469;42.720;23.252;2023-12-07T07:53:23;94694.50;;;4.59;100.00
20620;BME280;10469;42.720;23.252;2023-12-07T07:55:49;94699.59;;;4.93;100.00
20620;BME280;10469;42.720;23.252;2023-12-07T07:58:14;94698.16;;;4.97;100.00
20620;BME280;10469;42.720;23.252;2023-12-07T08:00:40;94713.91;;;4.72;100.00
20620;BME280;10469;42.720;23.252;2023-12-07T08:03:06;94704.50;;;4.76;100.00
20620;BME280;10469;42.720;23.252;2023-12-07T08:05:32;94712.06;;;4.73;100.00
20620;BME280;10469;42.720;23.252;2023-12-07T08:07:58;94718.38;;;4.92;100.00
20620;BME280;10469;42.720;23.252;2023-12-07T08:10:24;94710.84;;;4.62;100.00
20620;BME280;10469;42.720;23.252;2023-12-07T08:12:50;94719.63;;;4.56;100.00
20620;BME280;10469;42.720;23.252;2023-12-07T08:15:15;94711.41;;;4.24;100.00
20620;BME280;10469;42.720;23.252;2023-12-07T08:17:41;94724.31;;;4.47;100.00
20620;BME280;10469;42.720;23.252;2023-12-07T08:20:08;94731.66;;;4.45;100.00
20620;BME280;10469;42.720;23.252;2023-12-07T08:22:36;94721.22;;;4.44;100.00
20620;BME280;10469;42.720;23.252;2023-12-07T08:25:02;94722.06;;;4.51;100.00
20620;BME280;10469;42.720;23.252;2023-12-07T08:27:32;94738.16;;;4.30;100.00
20620;BME280;10469;42.720;23.252;2023-12-07T08:29:58;94730.41;;;4.35;100.00
20620;BME280;10469;42.720;23.252;2023-12-07T08:32:23;94726.72;;;4.22;100.00
20620;BME280;10469;42.720;23.252;2023-12-07T08:34:51;94736.75;;;4.34;100.00
20620;BME280;10469;42.720;23.252;2023-12-07T08:37:21;94729.81;;;4.33;100.00
20620;BME280;10469;42.720;23.252;2023-12-07T08:39:46;94737.38;;;4.49;100.00
20620;BME280;10469;42.720;23.252;2023-12-07T08:42:12;94735.31;;;4.38;100.00
20620;BME280;10469;42.720;23.252;2023-12-07T08:44:38;94747.75;;;4.24;100.00
20620;BME280;10469;42.720;23.252;2023-12-07T08:47:04;94754.31;;;4.35;100.00
20620;BME280;10469;42.720;23.252;2023-12-07T08:49:30;94738.56;;;4.20;100.00
20620;BME280;10469;42.720;23.252;2023-12-07T08:51:56;94752.03;;;4.25;100.00
20620;BME280;10469;42.720;23.252;2023-12-07T08:54:22;94749.69;;;3.89;100.00
20620;BME280;10469;42.720;23.252;2023-12-07T08:56:48;94740.66;;;3.76;100.00
20620;BME280;10469;42.720;23.252;2023-12-07T08:59:13;94746.91;;;4.10;100.00
20620;BME280;10469;42.720;23.252;2023-12-07T09:01:39;94746.06;;;4.10;100.00
20620;BME280;10469;42.720;23.252;2023-12-07T09:04:05;94748.53;;;4.11;100.00
20620;BME280;10469;42.720;23.252;2023-12-07T09:06:31;94742.41;;;4.17;100.00
20620;BME280;10469;42.720;23.252;2023-12-07T09:08:57;94731.69;;;3.84;100.00
20620;BME280;10469;42.720;23.252;2023-12-07T09:11:22;94755.63;;;3.97;100.00
20620;BME280;10469;42.720;23.252;2023-12-07T09:13:48;94741.25;;;3.78;100.00
20620;BME280;10469;42.720;23.252;2023-12-07T09:16:14;94744.78;;;3.92;100.00
20620;BME280;10469;42.720;23.252;2023-12-07T09:18:41;94736.28;;;4.10;100.00
20620;BME280;10469;42.720;23.252;2023-12-07T09:21:07;94748.63;;;3.76;100.00
20620;BME280;10469;42.720;23.252;2023-12-07T09:23:34;94754.09;;;3.68;100.00
20620;BME280;10469;42.720;23.252;2023-12-07T09:26:00;94749.47;;;3.90;100.00
20620;BME280;10469;42.720;23.252;2023-12-07T09:28:26;94745.22;;;3.96;100.00
20620;BME280;10469;42.720;23.252;2023-12-07T09:30:52;94745.53;;;3.80;100.00
20620;BME280;10469;42.720;23.252;2023-12-07T09:33:17;94749.66;;;3.82;100.00
20620;BME280;10469;42.720;23.252;2023-12-07T09:35:43;94748.06;;;3.53;100.00
20620;BME280;10469;42.720;23.252;2023-12-07T09:38:08;94744.72;;;3.72;100.00
20620;BME280;10469;42.720;23.252;2023-12-07T09:40:35;94749.38;;;3.70;100.00
20620;BME280;10469;42.720;23.252;2023-12-07T09:43:01;94752.09;;;3.84;100.00
20620;BME280;10469;42.720;23.252;2023-12-07T09:45:26;94746.94;;;3.69;100.00
20620;BME280;10469;42.720;23.252;2023-12-07T09:47:53;94754.25;;;3.60;100.00
20620;BME280;10469;42.720;23.252;2023-12-07T09:50:21;94740.75;;;3.55;100.00
20620;BME280;10469;42.720;23.252;2023-12-07T09:52:51;94747.69;;;3.56;100.00
20620;BME280;10469;42.720;23.252;2023-12-07T09:55:18;94754.72;;;3.77;100.00
20620;BME280;10469;42.720;23.252;2023-12-07T09:57:45;94751.88;;;3.78;100.00
20620;BME280;10469;42.720;23.252;2023-12-07T10:00:12;94758.56;;;3.68;100.00
20620;BME280;10469;42.720;23.252;2023-12-07T10:02:41;94749.03;;;3.39;100.00
20620;BME280;10469;42.720;23.252;2023-12-07T10:05:09;94758.69;;;3.18;100.00
20620;BME280;10469;42.720;23.252;2023-12-07T10:07:47;94762.72;;;3.14;100.00
20620;BME280;10469;42.720;23.252;2023-12-07T10:10:17;94765.81;;;3.18;100.00
20620;BME280;10469;42.720;23.252;2023-12-07T10:12:54;94762.28;;;3.39;100.00
20620;BME280;10469;42.720;23.252;2023-12-07T10:15:21;94760.31;;;3.19;100.00
20620;BME280;10469;42.720;23.252;2023-12-07T10:17:53;94754.94;;;2.78;100.00
20620;BME280;10469;42.720;23.252;2023-12-07T10:20:23;94754.47;;;2.74;100.00
20620;BME280;10469;42.720;23.252;2023-12-07T10:23:00;94758.28;;;2.93;100.00
20620;BME280;10469;42.720;23.252;2023-12-07T10:25:29;94724.47;;;2.67;100.00
20620;BME280;10469;42.720;23.252;2023-12-07T10:27:55;94751.59;;;2.97;100.00
20620;BME280;10469;42.720;23.252;2023-12-07T10:30:21;94757.84;;;3.11;100.00
20620;BME280;10469;42.720;23.252;2023-12-07T10:32:51;94756.09;;;2.97;100.00
20620;BME280;10469;42.720;23.252;2023-12-07T10:35:18;94741.47;;;2.80;100.00
20620;BME280;10469;42.720;23.252;2023-12-07T10:37:45;94742.22;;;2.95;100.00
20620;BME280;10469;42.720;23.252;2023-12-07T10:40:12;94757.03;;;2.61;100.00
20620;BME280;10469;42.720;23.252;2023-12-07T10:42:40;94736.47;;;2.63;100.00
20620;BME280;10469;42.720;23.252;2023-12-07T10:45:07;94750.25;;;2.80;100.00
20620;BME280;10469;42.720;23.252;2023-12-07T10:47:38;94755.97;;;2.84;100.00
20620;BME280;10469;42.720;23.252;2023-12-07T10:50:08;94755.13;;;2.76;100.00
20620;BME280;10469;42.720;23.252;2023-12-07T10:52:43;94751.50;;;2.84;100.00
20620;BME280;10469;42.720;23.252;2023-12-07T10:55:38;94754.56;;;2.81;100.00
20620;BME280;10469;42.720;23.252;2023-12-07T10:58:07;94745.19;;;2.57;100.00
20620;BME280;10469;42.720;23.252;2023-12-07T11:00:33;94751.84;;;2.74;100.00
20620;BME280;10469;42.720;23.252;2023-12-07T11:03:00;94759.78;;;2.53;100.00
20620;BME280;10469;42.720;23.252;2023-12-07T11:05:26;94747.22;;;2.34;100.00
20620;BME280;10469;42.720;23.252;2023-12-07T11:08:06;94757.28;;;2.45;100.00
20620;BME280;10469;42.720;23.252;2023-12-07T11:13:26;94753.75;;;2.59;100.00
20620;BME280;10469;42.720;23.252;2023-12-07T11:15:53;94761.81;;;2.72;100.00
20620;BME280;10469;42.720;23.252;2023-12-07T11:18:18;94749.84;;;2.76;100.00
20620;BME280;10469;42.720;23.252;2023-12-07T11:20:45;94753.88;;;2.72;100.00
20620;BME280;10469;42.720;23.252;2023-12-07T11:23:18;94750.44;;;2.79;100.00
20620;BME280;10469;42.720;23.252;2023-12-07T11:25:46;94760.69;;;2.60;100.00
20620;BME280;10469;42.720;23.252;2023-12-07T11:28:12;94756.41;;;2.87;100.00
20620;BME280;10469;42.720;23.252;2023-12-07T11:30:41;94749.63;;;2.78;100.00
20620;BME280;10469;42.720;23.252;2023-12-07T11:33:09;94759.19;;;2.79;100.00
20620;BME280;10469;42.720;23.252;2023-12-07T11:36:04;94756.59;;;3.07;100.00
20620;BME280;10469;42.720;23.252;2023-12-07T11:38:30;94753.47;;;2.75;100.00
20620;BME280;10469;42.720;23.252;2023-12-07T11:40:56;94752.66;;;2.75;100.00
20620;BME280;10469;42.720;23.252;2023-12-07T11:46:09;94739.38;;;2.96;100.00
20620;BME280;10469;42.720;23.252;2023-12-07T11:48:35;94737.88;;;2.59;100.00
20620;BME280;10469;42.720;23.252;2023-12-07T11:51:05;94737.66;;;2.82;100.00
20620;BME280;10469;42.720;23.252;2023-12-07T11:53:34;94738.19;;;2.99;100.00
20620;BME280;10469;42.720;23.252;2023-12-07T11:56:02;94739.47;;;3.10;100.00
20620;BME280;10469;42.720;23.252;2023-12-07T11:58:29;94743.59;;;3.19;100.00
20620;BME280;10469;42.720;23.252;2023-12-07T12:00:55;94738.34;;;2.97;100.00
20620;BME280;10469;42.720;23.252;2023-12-07T12:03:24;94746.88;;;2.93;100.00
20620;BME280;10469;42.720;23.252;2023-12-07T12:05:50;94732.38;;;2.89;100.00
20620;BME280;10469;42.720;23.252;2023-12-07T12:08:19;94734.50;;;3.00;100.00
20620;BME280;10469;42.720;23.252;2023-12-07T12:10:45;94746.31;;;2.97;100.00
20620;BME280;10469;42.720;23.252;2023-12-07T12:13:12;94734.88;;;2.97;100.00
20620;BME280;10469;42.720;23.252;2023-12-07T12:15:38;94749.25;;;2.81;100.00
20620;BME280;10469;42.720;23.252;2023-12-07T12:18:08;94735.03;;;2.89;100.00
20620;BME280;10469;42.720;23.252;2023-12-07T12:20:34;94746.38;;;3.04;100.00
20620;BME280;10469;42.720;23.252;2023-12-07T12:23:00;94746.75;;;3.01;100.00
20620;BME280;10469;42.720;23.252;2023-12-07T12:25:27;94726.50;;;2.65;100.00
20620;BME280;10469;42.720;23.252;2023-12-07T12:27:57;94750.41;;;3.00;100.00
20620;BME280;10469;42.720;23.252;2023-12-07T12:30:23;94718.97;;;2.90;100.00
20620;BME280;10469;42.720;23.252;2023-12-07T12:32:50;94722.66;;;2.96;100.00
20620;BME280;10469;42.720;23.252;2023-12-07T12:35:17;94740.78;;;3.20;100.00
20620;BME280;10469;42.720;23.252;2023-12-07T12:37:44;94737.78;;;3.02;100.00
20620;BME280;10469;42.720;23.252;2023-12-07T12:40:11;94743.06;;;3.02;100.00
20620;BME280;10469;42.720;23.252;2023-12-07T12:42:37;94754.00;;;2.92;100.00
20620;BME280;10469;42.720;23.252;2023-12-07T12:45:09;94753.66;;;3.02;100.00
20620;BME280;10469;42.720;23.252;2023-12-07T12:47:36;94750.06;;;2.82;100.00
20620;BME280;10469;42.720;23.252;2023-12-07T12:50:02;94752.50;;;2.55;100.00
20620;BME280;10469;42.720;23.252;2023-12-07T12:52:30;94753.59;;;2.46;100.00
20620;BME280;10469;42.720;23.252;2023-12-07T12:54:56;94747.22;;;2.34;100.00
20620;BME280;10469;42.720;23.252;2023-12-07T12:57:23;94752.78;;;2.45;100.00